Aérodrome :
LOGIN :

S'inscrire | Disclaimer

   EN    FR    IT 

 










Légende :    VFR   VFR Marginal   IFR   IFR Intensif   IFR Très Intensif
Visi : 
Plafond : 
>= 8 km
>= 3000ft
5 à 8 km
1000 à 3000 ft
1500m à 5 km
500 à 1000 ft
800 à 1500m
200 à 500 ft
< 800m
< 200 ft
Symboles :   Orages  Brouillard  Fortes neiges  Fortes précipitations  Vent > 20 kt
SIGMETs :   Divers  Orages  Givrage  Turbulence  Onde Orograph.  Cendres Volcan.






- Altitude de l'aérodrome : 622 ft
- Code IATA : BRS


EGGD - Bristol Int.

DERNIER METAR :
  • 161050Z AUTO 05009KT 9999 BKN029 BKN033 07/00 Q1031

METARs EXPIRÉS :
  • 161020Z AUTO 03009KT 9999 BKN024 07/00 Q1031
  • 160950Z AUTO 03006KT 9999 BKN021 07/02 Q1031
  • 160920Z AUTO 05006KT 9999 FEW020 06/01 Q1031
  • 160850Z AUTO 04006KT 9999 SCT015 05/01 Q1031
  • 160820Z AUTO 06005KT 030V090 9999 NCD 06/02 Q1031
  • 160750Z AUTO 08006KT 9999 NCD 05/02 Q1031

TAF AMD TAF EGGD
Valide du 16 à 08h jusqu'au 17 à 06h UTC


160850Z 1608/1706 07005KT 9999 BKN014
BECMG 1608/1610 FEW030
ATIS : +44 1275 473 666



MET'MAP, la Météo Aéronautique d'un coup d'oeil ! - Copyright ORBIFLY Décembre 2007 - Disclaimer

ORBIFLY MET'MAP TEAM :

Programmation & Développement : Alexandra Zaïnal
Sur une idée originale de : Baudouin d'Aumeries
Assistance à la programmation : Marc-Olivier Méhu
Soutien technique & logistique : Manuel Goepfert

Contact : metmap@orbifly.com




SOURCES & CREDITS :

   NOAA